sensor_id;sensor_type;location;lat;lon;timestamp;P1;durP1;ratioP1;P2;durP2;ratioP2
3922;SDS011;1976;51.694;6.256;2022-07-29T00:02:13;4.20;;;1.83;;
3922;SDS011;1976;51.694;6.256;2022-07-29T00:04:38;3.03;;;1.50;;
3922;SDS011;1976;51.694;6.256;2022-07-29T00:07:04;8.27;;;1.70;;
3922;SDS011;1976;51.694;6.256;2022-07-29T00:09:30;9.73;;;1.80;;
3922;SDS011;1976;51.694;6.256;2022-07-29T00:11:57;7.30;;;1.97;;
3922;SDS011;1976;51.694;6.256;2022-07-29T00:14:25;1.67;;;1.37;;
3922;SDS011;1976;51.694;6.256;2022-07-29T00:16:51;2.60;;;1.70;;
3922;SDS011;1976;51.694;6.256;2022-07-29T00:19:17;9.00;;;1.60;;
3922;SDS011;1976;51.694;6.256;2022-07-29T00:21:42;5.27;;;1.80;;
3922;SDS011;1976;51.694;6.256;2022-07-29T00:24:08;11.60;;;1.90;;
3922;SDS011;1976;51.694;6.256;2022-07-29T00:26:34;2.27;;;1.50;;
3922;SDS011;1976;51.694;6.256;2022-07-29T00:29:00;2.30;;;1.40;;
3922;SDS011;1976;51.694;6.256;2022-07-29T00:31:27;2.30;;;1.50;;
3922;SDS011;1976;51.694;6.256;2022-07-29T00:33:53;7.23;;;1.60;;
3922;SDS011;1976;51.694;6.256;2022-07-29T00:36:19;6.90;;;1.57;;
3922;SDS011;1976;51.694;6.256;2022-07-29T00:38:48;6.80;;;1.50;;
3922;SDS011;1976;51.694;6.256;2022-07-29T00:41:15;3.07;;;1.80;;
3922;SDS011;1976;51.694;6.256;2022-07-29T00:43:42;2.50;;;1.40;;
3922;SDS011;1976;51.694;6.256;2022-07-29T00:46:08;5.10;;;1.83;;
3922;SDS011;1976;51.694;6.256;2022-07-29T00:48:34;1.30;;;1.20;;
3922;SDS011;1976;51.694;6.256;2022-07-29T00:51:01;7.23;;;1.80;;
3922;SDS011;1976;51.694;6.256;2022-07-29T00:53:29;4.23;;;1.70;;
3922;SDS011;1976;51.694;6.256;2022-07-29T00:55:56;5.57;;;1.47;;
3922;SDS011;1976;51.694;6.256;2022-07-29T00:58:23;5.80;;;1.60;;
3922;SDS011;1976;51.694;6.256;2022-07-29T01:00:51;6.40;;;1.60;;
3922;SDS011;1976;51.694;6.256;2022-07-29T01:03:17;6.17;;;1.93;;
3922;SDS011;1976;51.694;6.256;2022-07-29T01:05:44;2.20;;;1.60;;
3922;SDS011;1976;51.694;6.256;2022-07-29T01:08:11;3.47;;;1.40;;
3922;SDS011;1976;51.694;6.256;2022-07-29T01:10:38;2.60;;;1.60;;
3922;SDS011;1976;51.694;6.256;2022-07-29T01:13:05;3.40;;;1.47;;
3922;SDS011;1976;51.694;6.256;2022-07-29T01:15:33;1.93;;;1.30;;
3922;SDS011;1976;51.694;6.256;2022-07-29T01:18:07;16.93;;;1.43;;
3922;SDS011;1976;51.694;6.256;2022-07-29T01:31:51;14.43;;;1.80;;
3922;SDS011;1976;51.694;6.256;2022-07-29T01:34:41;3.50;;;1.97;;
3922;SDS011;1976;51.694;6.256;2022-07-29T01:37:32;4.20;;;1.37;;
3922;SDS011;1976;51.694;6.256;2022-07-29T01:40:20;2.03;;;1.60;;
3922;SDS011;1976;51.694;6.256;2022-07-29T01:42:54;4.80;;;1.77;;
3922;SDS011;1976;51.694;6.256;2022-07-29T01:50:38;3.57;;;1.30;;
3922;SDS011;1976;51.694;6.256;2022-07-29T01:53:10;1.97;;;1.30;;
3922;SDS011;1976;51.694;6.256;2022-07-29T01:55:40;3.20;;;1.50;;
3922;SDS011;1976;51.694;6.256;2022-07-29T01:58:09;3.30;;;1.27;;
3922;SDS011;1976;51.694;6.256;2022-07-29T02:00:37;5.70;;;1.60;;
3922;SDS011;1976;51.694;6.256;2022-07-29T02:03:05;1.70;;;1.50;;
3922;SDS011;1976;51.694;6.256;2022-07-29T02:05:35;6.40;;;1.63;;
3922;SDS011;1976;51.694;6.256;2022-07-29T02:08:03;1.53;;;1.40;;
3922;SDS011;1976;51.694;6.256;2022-07-29T02:10:31;10.33;;;1.80;;
3922;SDS011;1976;51.694;6.256;2022-07-29T02:12:59;2.80;;;1.50;;
3922;SDS011;1976;51.694;6.256;2022-07-29T02:15:27;3.87;;;1.70;;
3922;SDS011;1976;51.694;6.256;2022-07-29T02:18:01;3.10;;;1.30;;
3922;SDS011;1976;51.694;6.256;2022-07-29T02:20:39;12.10;;;1.63;;
3922;SDS011;1976;51.694;6.256;2022-07-29T02:23:12;6.30;;;1.83;;
3922;SDS011;1976;51.694;6.256;2022-07-29T02:25:40;13.27;;;2.50;;
3922;SDS011;1976;51.694;6.256;2022-07-29T02:28:07;16.63;;;3.13;;
3922;SDS011;1976;51.694;6.256;2022-07-29T02:30:33;8.67;;;3.10;;
3922;SDS011;1976;51.694;6.256;2022-07-29T02:33:04;9.10;;;3.20;;
3922;SDS011;1976;51.694;6.256;2022-07-29T02:35:31;5.97;;;3.40;;
3922;SDS011;1976;51.694;6.256;2022-07-29T02:37:57;13.93;;;3.43;;
3922;SDS011;1976;51.694;6.256;2022-07-29T02:40:42;5.83;;;3.43;;
3922;SDS011;1976;51.694;6.256;2022-07-29T02:43:09;7.50;;;2.67;;
3922;SDS011;1976;51.694;6.256;2022-07-29T02:45:35;5.40;;;2.50;;
3922;SDS011;1976;51.694;6.256;2022-07-29T02:48:05;6.57;;;2.77;;
3922;SDS011;1976;51.694;6.256;2022-07-29T02:50:37;3.13;;;2.10;;
3922;SDS011;1976;51.694;6.256;2022-07-29T02:53:12;7.57;;;2.77;;
3922;SDS011;1976;51.694;6.256;2022-07-29T02:55:45;5.27;;;2.37;;
3922;SDS011;1976;51.694;6.256;2022-07-29T02:58:27;9.40;;;2.67;;
3922;SDS011;1976;51.694;6.256;2022-07-29T03:00:56;6.40;;;2.60;;
3922;SDS011;1976;51.694;6.256;2022-07-29T03:03:37;3.03;;;2.60;;
3922;SDS011;1976;51.694;6.256;2022-07-29T03:06:04;5.93;;;2.70;;
3922;SDS011;1976;51.694;6.256;2022-07-29T03:08:31;10.17;;;2.27;;
3922;SDS011;1976;51.694;6.256;2022-07-29T03:10:59;7.00;;;2.90;;
3922;SDS011;1976;51.694;6.256;2022-07-29T03:13:26;4.30;;;2.43;;
3922;SDS011;1976;51.694;6.256;2022-07-29T03:15:54;6.70;;;2.90;;
3922;SDS011;1976;51.694;6.256;2022-07-29T03:18:21;3.33;;;2.37;;
3922;SDS011;1976;51.694;6.256;2022-07-29T03:20:47;3.20;;;2.30;;
3922;SDS011;1976;51.694;6.256;2022-07-29T03:23:14;3.50;;;2.50;;
3922;SDS011;1976;51.694;6.256;2022-07-29T03:25:49;7.17;;;2.70;;
3922;SDS011;1976;51.694;6.256;2022-07-29T03:28:15;15.30;;;3.10;;
3922;SDS011;1976;51.694;6.256;2022-07-29T03:30:40;5.53;;;2.73;;
3922;SDS011;1976;51.694;6.256;2022-07-29T03:33:06;6.83;;;2.47;;
3922;SDS011;1976;51.694;6.256;2022-07-29T03:35:32;4.00;;;2.37;;
3922;SDS011;1976;51.694;6.256;2022-07-29T03:37:58;9.03;;;2.67;;
3922;SDS011;1976;51.694;6.256;2022-07-29T03:40:44;4.90;;;3.03;;
3922;SDS011;1976;51.694;6.256;2022-07-29T03:43:15;5.97;;;2.80;;
3922;SDS011;1976;51.694;6.256;2022-07-29T03:45:47;8.90;;;2.83;;
3922;SDS011;1976;51.694;6.256;2022-07-29T03:48:15;4.03;;;2.77;;
3922;SDS011;1976;51.694;6.256;2022-07-29T03:50:44;3.53;;;3.13;;
3922;SDS011;1976;51.694;6.256;2022-07-29T03:53:11;6.40;;;2.90;;
3922;SDS011;1976;51.694;6.256;2022-07-29T03:55:40;3.30;;;2.33;;
3922;SDS011;1976;51.694;6.256;2022-07-29T03:58:07;3.57;;;2.40;;
3922;SDS011;1976;51.694;6.256;2022-07-29T04:00:35;3.03;;;2.70;;
3922;SDS011;1976;51.694;6.256;2022-07-29T04:03:02;6.37;;;2.50;;
3922;SDS011;1976;51.694;6.256;2022-07-29T04:05:29;5.40;;;2.80;;
3922;SDS011;1976;51.694;6.256;2022-07-29T04:07:55;7.13;;;3.00;;
3922;SDS011;1976;51.694;6.256;2022-07-29T04:10:21;9.60;;;3.57;;
3922;SDS011;1976;51.694;6.256;2022-07-29T04:12:48;8.27;;;3.27;;
3922;SDS011;1976;51.694;6.256;2022-07-29T04:15:14;22.33;;;2.83;;
3922;SDS011;1976;51.694;6.256;2022-07-29T04:17:40;7.00;;;3.23;;
3922;SDS011;1976;51.694;6.256;2022-07-29T04:20:05;3.93;;;3.13;;
3922;SDS011;1976;51.694;6.256;2022-07-29T04:22:31;9.50;;;3.13;;
3922;SDS011;1976;51.694;6.256;2022-07-29T04:24:57;6.50;;;2.50;;
3922;SDS011;1976;51.694;6.256;2022-07-29T04:27:22;5.93;;;3.00;;
3922;SDS011;1976;51.694;6.256;2022-07-29T04:29:49;3.57;;;2.83;;
3922;SDS011;1976;51.694;6.256;2022-07-29T04:32:15;9.53;;;3.27;;
3922;SDS011;1976;51.694;6.256;2022-07-29T04:34:40;6.83;;;3.40;;
3922;SDS011;1976;51.694;6.256;2022-07-29T04:37:06;5.50;;;4.17;;
3922;SDS011;1976;51.694;6.256;2022-07-29T04:39:31;7.17;;;3.17;;
3922;SDS011;1976;51.694;6.256;2022-07-29T04:41:57;5.93;;;3.20;;
3922;SDS011;1976;51.694;6.256;2022-07-29T04:44:23;5.43;;;3.47;;
3922;SDS011;1976;51.694;6.256;2022-07-29T04:46:48;10.90;;;3.27;;
3922;SDS011;1976;51.694;6.256;2022-07-29T04:49:14;5.60;;;3.13;;
3922;SDS011;1976;51.694;6.256;2022-07-29T04:51:39;7.17;;;3.33;;
3922;SDS011;1976;51.694;6.256;2022-07-29T04:54:05;3.63;;;3.03;;
3922;SDS011;1976;51.694;6.256;2022-07-29T04:56:31;8.60;;;3.30;;
3922;SDS011;1976;51.694;6.256;2022-07-29T04:58:56;3.77;;;2.87;;
3922;SDS011;1976;51.694;6.256;2022-07-29T05:01:22;5.67;;;3.30;;
3922;SDS011;1976;51.694;6.256;2022-07-29T05:03:48;7.20;;;2.90;;
3922;SDS011;1976;51.694;6.256;2022-07-29T05:06:14;5.27;;;3.13;;
3922;SDS011;1976;51.694;6.256;2022-07-29T05:08:39;8.00;;;3.33;;
3922;SDS011;1976;51.694;6.256;2022-07-29T05:11:05;11.27;;;2.60;;
3922;SDS011;1976;51.694;6.256;2022-07-29T05:13:31;10.93;;;3.17;;
3922;SDS011;1976;51.694;6.256;2022-07-29T05:15:56;10.00;;;3.27;;
3922;SDS011;1976;51.694;6.256;2022-07-29T05:18:23;7.33;;;3.67;;
3922;SDS011;1976;51.694;6.256;2022-07-29T05:20:53;6.43;;;3.40;;
3922;SDS011;1976;51.694;6.256;2022-07-29T05:23:19;4.97;;;3.33;;
3922;SDS011;1976;51.694;6.256;2022-07-29T05:25:44;3.70;;;3.37;;
3922;SDS011;1976;51.694;6.256;2022-07-29T05:28:11;4.47;;;2.93;;
3922;SDS011;1976;51.694;6.256;2022-07-29T05:30:37;4.47;;;3.17;;
3922;SDS011;1976;51.694;6.256;2022-07-29T05:33:03;5.80;;;3.27;;
3922;SDS011;1976;51.694;6.256;2022-07-29T05:35:28;7.80;;;3.80;;
3922;SDS011;1976;51.694;6.256;2022-07-29T05:37:54;8.60;;;3.67;;
3922;SDS011;1976;51.694;6.256;2022-07-29T05:40:20;10.00;;;3.93;;
3922;SDS011;1976;51.694;6.256;2022-07-29T05:42:45;9.00;;;3.70;;
3922;SDS011;1976;51.694;6.256;2022-07-29T05:45:11;7.50;;;3.70;;
3922;SDS011;1976;51.694;6.256;2022-07-29T05:47:37;4.43;;;3.50;;
3922;SDS011;1976;51.694;6.256;2022-07-29T05:50:02;11.90;;;3.67;;
3922;SDS011;1976;51.694;6.256;2022-07-29T05:52:29;4.83;;;3.33;;
3922;SDS011;1976;51.694;6.256;2022-07-29T05:54:55;4.30;;;3.47;;
3922;SDS011;1976;51.694;6.256;2022-07-29T05:57:22;5.53;;;3.47;;
3922;SDS011;1976;51.694;6.256;2022-07-29T05:59:49;4.40;;;3.37;;
3922;SDS011;1976;51.694;6.256;2022-07-29T06:02:15;6.83;;;3.90;;
3922;SDS011;1976;51.694;6.256;2022-07-29T06:04:42;6.97;;;3.90;;
3922;SDS011;1976;51.694;6.256;2022-07-29T06:07:08;3.13;;;2.83;;
3922;SDS011;1976;51.694;6.256;2022-07-29T06:09:33;3.70;;;3.40;;
3922;SDS011;1976;51.694;6.256;2022-07-29T06:12:00;3.20;;;2.90;;
3922;SDS011;1976;51.694;6.256;2022-07-29T06:14:26;9.97;;;4.03;;
3922;SDS011;1976;51.694;6.256;2022-07-29T06:16:53;5.60;;;3.50;;
3922;SDS011;1976;51.694;6.256;2022-07-29T06:19:18;6.37;;;4.70;;
3922;SDS011;1976;51.694;6.256;2022-07-29T06:21:45;5.77;;;4.07;;
3922;SDS011;1976;51.694;6.256;2022-07-29T06:24:11;5.97;;;3.40;;
3922;SDS011;1976;51.694;6.256;2022-07-29T06:26:38;22.70;;;3.80;;
3922;SDS011;1976;51.694;6.256;2022-07-29T06:29:05;5.07;;;3.40;;
3922;SDS011;1976;51.694;6.256;2022-07-29T06:31:35;11.70;;;3.27;;
3922;SDS011;1976;51.694;6.256;2022-07-29T06:34:02;4.47;;;3.63;;
3922;SDS011;1976;51.694;6.256;2022-07-29T06:36:28;6.40;;;3.57;;
3922;SDS011;1976;51.694;6.256;2022-07-29T06:38:53;10.40;;;3.73;;
3922;SDS011;1976;51.694;6.256;2022-07-29T06:41:19;8.87;;;3.40;;
3922;SDS011;1976;51.694;6.256;2022-07-29T06:43:45;8.13;;;4.10;;
3922;SDS011;1976;51.694;6.256;2022-07-29T06:46:12;5.47;;;3.80;;
3922;SDS011;1976;51.694;6.256;2022-07-29T06:48:40;7.10;;;3.60;;
3922;SDS011;1976;51.694;6.256;2022-07-29T06:51:09;8.77;;;3.97;;
3922;SDS011;1976;51.694;6.256;2022-07-29T06:53:36;5.17;;;3.97;;
3922;SDS011;1976;51.694;6.256;2022-07-29T06:56:03;8.80;;;3.23;;
3922;SDS011;1976;51.694;6.256;2022-07-29T06:58:30;7.33;;;4.00;;
3922;SDS011;1976;51.694;6.256;2022-07-29T07:00:57;5.40;;;3.70;;
3922;SDS011;1976;51.694;6.256;2022-07-29T07:03:24;5.27;;;4.00;;
3922;SDS011;1976;51.694;6.256;2022-07-29T07:05:49;11.20;;;3.43;;
3922;SDS011;1976;51.694;6.256;2022-07-29T07:08:16;7.90;;;3.43;;
3922;SDS011;1976;51.694;6.256;2022-07-29T07:10:42;6.27;;;3.50;;
3922;SDS011;1976;51.694;6.256;2022-07-29T07:13:09;8.93;;;3.90;;
3922;SDS011;1976;51.694;6.256;2022-07-29T07:15:35;8.33;;;3.20;;
3922;SDS011;1976;51.694;6.256;2022-07-29T07:18:01;6.90;;;3.90;;
3922;SDS011;1976;51.694;6.256;2022-07-29T07:20:27;6.60;;;4.13;;
3922;SDS011;1976;51.694;6.256;2022-07-29T07:22:53;10.43;;;3.70;;
3922;SDS011;1976;51.694;6.256;2022-07-29T07:25:18;9.17;;;3.70;;
3922;SDS011;1976;51.694;6.256;2022-07-29T07:27:44;4.33;;;3.67;;
3922;SDS011;1976;51.694;6.256;2022-07-29T07:30:11;12.17;;;4.20;;
3922;SDS011;1976;51.694;6.256;2022-07-29T07:32:37;8.27;;;4.50;;
3922;SDS011;1976;51.694;6.256;2022-07-29T07:35:04;9.83;;;4.00;;
3922;SDS011;1976;51.694;6.256;2022-07-29T07:37:31;8.80;;;3.80;;
3922;SDS011;1976;51.694;6.256;2022-07-29T07:39:57;8.90;;;4.60;;
3922;SDS011;1976;51.694;6.256;2022-07-29T07:42:23;7.50;;;4.40;;
3922;SDS011;1976;51.694;6.256;2022-07-29T07:44:55;7.27;;;4.70;;
3922;SDS011;1976;51.694;6.256;2022-07-29T07:47:24;9.80;;;5.13;;
3922;SDS011;1976;51.694;6.256;2022-07-29T07:49:50;28.17;;;6.17;;
3922;SDS011;1976;51.694;6.256;2022-07-29T07:52:16;6.83;;;4.33;;
3922;SDS011;1976;51.694;6.256;2022-07-29T07:54:42;7.10;;;5.07;;
3922;SDS011;1976;51.694;6.256;2022-07-29T07:57:09;16.13;;;4.67;;
3922;SDS011;1976;51.694;6.256;2022-07-29T07:59:36;5.70;;;4.60;;
3922;SDS011;1976;51.694;6.256;2022-07-29T08:02:02;13.90;;;4.53;;
3922;SDS011;1976;51.694;6.256;2022-07-29T08:04:28;6.03;;;5.03;;
3922;SDS011;1976;51.694;6.256;2022-07-29T08:06:54;11.00;;;5.30;;
3922;SDS011;1976;51.694;6.256;2022-07-29T08:09:20;8.93;;;4.30;;
3922;SDS011;1976;51.694;6.256;2022-07-29T08:11:47;11.43;;;4.57;;
3922;SDS011;1976;51.694;6.256;2022-07-29T08:14:12;6.90;;;4.40;;
3922;SDS011;1976;51.694;6.256;2022-07-29T08:16:39;9.03;;;5.03;;
3922;SDS011;1976;51.694;6.256;2022-07-29T08:19:05;7.80;;;4.73;;
3922;SDS011;1976;51.694;6.256;2022-07-29T08:21:31;6.83;;;4.87;;
3922;SDS011;1976;51.694;6.256;2022-07-29T08:23:57;7.97;;;5.37;;
3922;SDS011;1976;51.694;6.256;2022-07-29T08:26:42;6.30;;;5.13;;
3922;SDS011;1976;51.694;6.256;2022-07-29T08:29:08;10.47;;;4.60;;
3922;SDS011;1976;51.694;6.256;2022-07-29T08:31:35;6.53;;;4.40;;
3922;SDS011;1976;51.694;6.256;2022-07-29T08:34:01;14.40;;;5.47;;
3922;SDS011;1976;51.694;6.256;2022-07-29T08:36:28;6.43;;;4.50;;
3922;SDS011;1976;51.694;6.256;2022-07-29T08:38:54;5.77;;;5.10;;
3922;SDS011;1976;51.694;6.256;2022-07-29T08:41:20;7.60;;;5.00;;
3922;SDS011;1976;51.694;6.256;2022-07-29T08:43:47;13.63;;;5.10;;
3922;SDS011;1976;51.694;6.256;2022-07-29T08:46:13;6.57;;;4.80;;
3922;SDS011;1976;51.694;6.256;2022-07-29T08:48:39;8.30;;;5.40;;
3922;SDS011;1976;51.694;6.256;2022-07-29T08:51:06;7.73;;;5.00;;
3922;SDS011;1976;51.694;6.256;2022-07-29T08:53:32;6.63;;;5.73;;
3922;SDS011;1976;51.694;6.256;2022-07-29T08:55:58;9.70;;;5.50;;
3922;SDS011;1976;51.694;6.256;2022-07-29T08:58:25;7.17;;;5.00;;
3922;SDS011;1976;51.694;6.256;2022-07-29T09:00:55;9.33;;;5.13;;
3922;SDS011;1976;51.694;6.256;2022-07-29T09:03:23;8.13;;;5.70;;
3922;SDS011;1976;51.694;6.256;2022-07-29T09:05:50;5.63;;;4.70;;
3922;SDS011;1976;51.694;6.256;2022-07-29T09:08:16;5.43;;;4.73;;
3922;SDS011;1976;51.694;6.256;2022-07-29T09:10:42;5.83;;;4.47;;
3922;SDS011;1976;51.694;6.256;2022-07-29T09:13:09;9.80;;;4.40;;
3922;SDS011;1976;51.694;6.256;2022-07-29T09:15:35;5.10;;;4.10;;
3922;SDS011;1976;51.694;6.256;2022-07-29T09:18:00;5.33;;;4.57;;
3922;SDS011;1976;51.694;6.256;2022-07-29T09:20:27;6.73;;;4.80;;
3922;SDS011;1976;51.694;6.256;2022-07-29T09:23:13;6.73;;;4.17;;
3922;SDS011;1976;51.694;6.256;2022-07-29T09:25:39;4.97;;;4.23;;
3922;SDS011;1976;51.694;6.256;2022-07-29T09:28:10;9.80;;;4.80;;
3922;SDS011;1976;51.694;6.256;2022-07-29T09:30:50;12.30;;;4.77;;
3922;SDS011;1976;51.694;6.256;2022-07-29T09:33:16;10.80;;;4.60;;
3922;SDS011;1976;51.694;6.256;2022-07-29T09:35:42;4.63;;;4.23;;
3922;SDS011;1976;51.694;6.256;2022-07-29T09:38:11;9.30;;;4.23;;
3922;SDS011;1976;51.694;6.256;2022-07-29T09:40:38;13.03;;;4.50;;
3922;SDS011;1976;51.694;6.256;2022-07-29T09:43:10;9.77;;;4.73;;
3922;SDS011;1976;51.694;6.256;2022-07-29T09:45:37;8.50;;;4.33;;
3922;SDS011;1976;51.694;6.256;2022-07-29T09:48:13;22.03;;;4.70;;
3922;SDS011;1976;51.694;6.256;2022-07-29T09:50:43;9.07;;;3.50;;
3922;SDS011;1976;51.694;6.256;2022-07-29T09:53:10;4.80;;;3.30;;
3922;SDS011;1976;51.694;6.256;2022-07-29T09:55:51;9.80;;;3.70;;
3922;SDS011;1976;51.694;6.256;2022-07-29T09:58:17;8.80;;;3.87;;
3922;SDS011;1976;51.694;6.256;2022-07-29T10:00:45;9.63;;;3.93;;
3922;SDS011;1976;51.694;6.256;2022-07-29T10:03:12;8.37;;;3.57;;
3922;SDS011;1976;51.694;6.256;2022-07-29T10:05:39;5.20;;;3.17;;
3922;SDS011;1976;51.694;6.256;2022-07-29T10:08:06;13.83;;;4.00;;
3922;SDS011;1976;51.694;6.256;2022-07-29T10:10:35;4.07;;;3.20;;
3922;SDS011;1976;51.694;6.256;2022-07-29T10:13:04;6.10;;;3.50;;
3922;SDS011;1976;51.694;6.256;2022-07-29T10:15:33;7.83;;;3.13;;
3922;SDS011;1976;51.694;6.256;2022-07-29T10:18:05;4.37;;;2.93;;
3922;SDS011;1976;51.694;6.256;2022-07-29T10:20:32;7.50;;;3.10;;
3922;SDS011;1976;51.694;6.256;2022-07-29T10:22:57;5.37;;;2.47;;
3922;SDS011;1976;51.694;6.256;2022-07-29T10:25:23;3.93;;;2.70;;
3922;SDS011;1976;51.694;6.256;2022-07-29T10:27:50;7.83;;;2.40;;
3922;SDS011;1976;51.694;6.256;2022-07-29T10:30:16;3.37;;;2.80;;
3922;SDS011;1976;51.694;6.256;2022-07-29T10:35:42;4.83;;;2.10;;
3922;SDS011;1976;51.694;6.256;2022-07-29T10:46:37;5.63;;;1.80;;
3922;SDS011;1976;51.694;6.256;2022-07-29T10:49:08;2.30;;;1.70;;
3922;SDS011;1976;51.694;6.256;2022-07-29T11:05:17;4.90;;;1.80;;
3922;SDS011;1976;51.694;6.256;2022-07-29T11:10:37;4.30;;;2.50;;
3922;SDS011;1976;51.694;6.256;2022-07-29T11:13:03;5.70;;;2.80;;
3922;SDS011;1976;51.694;6.256;2022-07-29T11:15:29;2.43;;;2.00;;
3922;SDS011;1976;51.694;6.256;2022-07-29T11:18:18;7.40;;;4.80;;
3922;SDS011;1976;51.694;6.256;2022-07-29T11:20:47;5.40;;;3.07;;
3922;SDS011;1976;51.694;6.256;2022-07-29T11:31:36;3.27;;;2.57;;
3922;SDS011;1976;51.694;6.256;2022-07-29T11:34:22;13.43;;;4.80;;
3922;SDS011;1976;51.694;6.256;2022-07-29T11:39:33;2.03;;;1.80;;
3922;SDS011;1976;51.694;6.256;2022-07-29T11:44:54;2.00;;;1.70;;
3922;SDS011;1976;51.694;6.256;2022-07-29T11:47:21;3.63;;;2.17;;
3922;SDS011;1976;51.694;6.256;2022-07-29T11:49:47;3.07;;;1.60;;
3922;SDS011;1976;51.694;6.256;2022-07-29T11:52:15;8.13;;;2.90;;
3922;SDS011;1976;51.694;6.256;2022-07-29T11:54:42;5.87;;;1.87;;
3922;SDS011;1976;51.694;6.256;2022-07-29T11:57:08;7.33;;;2.00;;
3922;SDS011;1976;51.694;6.256;2022-07-29T11:59:40;3.93;;;2.30;;
3922;SDS011;1976;51.694;6.256;2022-07-29T12:02:08;9.60;;;2.50;;
3922;SDS011;1976;51.694;6.256;2022-07-29T12:04:47;4.80;;;2.40;;
3922;SDS011;1976;51.694;6.256;2022-07-29T12:07:17;3.17;;;2.37;;
3922;SDS011;1976;51.694;6.256;2022-07-29T12:09:49;2.97;;;1.87;;
3922;SDS011;1976;51.694;6.256;2022-07-29T12:12:16;7.60;;;2.43;;
3922;SDS011;1976;51.694;6.256;2022-07-29T12:14:42;3.77;;;2.23;;
3922;SDS011;1976;51.694;6.256;2022-07-29T12:17:24;6.67;;;2.90;;
3922;SDS011;1976;51.694;6.256;2022-07-29T12:19:51;3.80;;;2.37;;
3922;SDS011;1976;51.694;6.256;2022-07-29T12:22:24;4.33;;;2.40;;
3922;SDS011;1976;51.694;6.256;2022-07-29T12:24:55;6.17;;;2.40;;
3922;SDS011;1976;51.694;6.256;2022-07-29T12:27:21;9.10;;;2.40;;
3922;SDS011;1976;51.694;6.256;2022-07-29T12:30:00;5.93;;;2.37;;
3922;SDS011;1976;51.694;6.256;2022-07-29T12:32:32;7.93;;;2.40;;
3922;SDS011;1976;51.694;6.256;2022-07-29T12:35:00;2.30;;;2.00;;
3922;SDS011;1976;51.694;6.256;2022-07-29T12:37:42;3.13;;;2.30;;
3922;SDS011;1976;51.694;6.256;2022-07-29T12:40:09;4.87;;;2.10;;
3922;SDS011;1976;51.694;6.256;2022-07-29T12:42:37;5.90;;;2.07;;
3922;SDS011;1976;51.694;6.256;2022-07-29T12:45:03;11.53;;;2.20;;
3922;SDS011;1976;51.694;6.256;2022-07-29T12:47:30;3.73;;;2.20;;
3922;SDS011;1976;51.694;6.256;2022-07-29T12:50:17;7.53;;;2.00;;
3922;SDS011;1976;51.694;6.256;2022-07-29T12:52:43;4.87;;;2.10;;
3922;SDS011;1976;51.694;6.256;2022-07-29T12:55:10;3.70;;;1.90;;
3922;SDS011;1976;51.694;6.256;2022-07-29T12:57:49;4.63;;;2.63;;
3922;SDS011;1976;51.694;6.256;2022-07-29T13:00:20;5.30;;;1.83;;
3922;SDS011;1976;51.694;6.256;2022-07-29T13:02:56;5.43;;;2.10;;
3922;SDS011;1976;51.694;6.256;2022-07-29T13:05:23;9.03;;;1.67;;
3922;SDS011;1976;51.694;6.256;2022-07-29T13:08:36;4.07;;;1.93;;
3922;SDS011;1976;51.694;6.256;2022-07-29T13:10:55;3.83;;;1.40;;
3922;SDS011;1976;51.694;6.256;2022-07-29T13:13:20;3.43;;;1.60;;
3922;SDS011;1976;51.694;6.256;2022-07-29T13:15:46;1.90;;;1.67;;
3922;SDS011;1976;51.694;6.256;2022-07-29T13:18:33;4.90;;;2.20;;
3922;SDS011;1976;51.694;6.256;2022-07-29T13:21:12;2.00;;;1.80;;
3922;SDS011;1976;51.694;6.256;2022-07-29T13:23:39;3.87;;;1.77;;
3922;SDS011;1976;51.694;6.256;2022-07-29T13:26:06;4.23;;;1.73;;
3922;SDS011;1976;51.694;6.256;2022-07-29T13:28:33;5.07;;;1.50;;
3922;SDS011;1976;51.694;6.256;2022-07-29T13:30:59;7.97;;;1.80;;
3922;SDS011;1976;51.694;6.256;2022-07-29T13:33:25;8.03;;;1.97;;
3922;SDS011;1976;51.694;6.256;2022-07-29T13:35:51;2.73;;;1.60;;
3922;SDS011;1976;51.694;6.256;2022-07-29T13:38:16;2.00;;;1.50;;
3922;SDS011;1976;51.694;6.256;2022-07-29T13:40:42;2.80;;;1.20;;
3922;SDS011;1976;51.694;6.256;2022-07-29T13:43:11;2.50;;;1.13;;
3922;SDS011;1976;51.694;6.256;2022-07-29T13:45:37;2.37;;;1.57;;
3922;SDS011;1976;51.694;6.256;2022-07-29T13:48:03;5.27;;;1.47;;
3922;SDS011;1976;51.694;6.256;2022-07-29T13:50:29;7.53;;;1.90;;
3922;SDS011;1976;51.694;6.256;2022-07-29T13:52:54;2.10;;;1.33;;
3922;SDS011;1976;51.694;6.256;2022-07-29T13:55:20;5.83;;;2.60;;
3922;SDS011;1976;51.694;6.256;2022-07-29T13:57:46;2.97;;;2.17;;
3922;SDS011;1976;51.694;6.256;2022-07-29T14:00:12;3.90;;;1.50;;
3922;SDS011;1976;51.694;6.256;2022-07-29T14:02:38;2.20;;;1.90;;
3922;SDS011;1976;51.694;6.256;2022-07-29T14:05:05;5.07;;;2.07;;
3922;SDS011;1976;51.694;6.256;2022-07-29T14:07:31;4.30;;;1.70;;
3922;SDS011;1976;51.694;6.256;2022-07-29T14:09:57;5.33;;;1.30;;
3922;SDS011;1976;51.694;6.256;2022-07-29T14:12:22;2.23;;;1.77;;
3922;SDS011;1976;51.694;6.256;2022-07-29T14:14:48;1.47;;;1.37;;
3922;SDS011;1976;51.694;6.256;2022-07-29T14:17:14;4.27;;;1.60;;
3922;SDS011;1976;51.694;6.256;2022-07-29T14:19:40;3.90;;;1.60;;
3922;SDS011;1976;51.694;6.256;2022-07-29T14:22:07;1.47;;;1.37;;
3922;SDS011;1976;51.694;6.256;2022-07-29T14:24:33;2.50;;;1.50;;
3922;SDS011;1976;51.694;6.256;2022-07-29T14:27:00;3.03;;;1.60;;
3922;SDS011;1976;51.694;6.256;2022-07-29T14:29:25;2.87;;;1.77;;
3922;SDS011;1976;51.694;6.256;2022-07-29T14:31:51;5.60;;;2.00;;
3922;SDS011;1976;51.694;6.256;2022-07-29T14:34:17;3.73;;;1.83;;
3922;SDS011;1976;51.694;6.256;2022-07-29T14:36:43;18.33;;;1.60;;
3922;SDS011;1976;51.694;6.256;2022-07-29T14:39:08;3.50;;;1.80;;
3922;SDS011;1976;51.694;6.256;2022-07-29T14:41:34;3.10;;;1.40;;
3922;SDS011;1976;51.694;6.256;2022-07-29T14:44:00;4.10;;;1.70;;
3922;SDS011;1976;51.694;6.256;2022-07-29T14:46:26;2.30;;;1.10;;
3922;SDS011;1976;51.694;6.256;2022-07-29T14:48:52;2.97;;;1.60;;
3922;SDS011;1976;51.694;6.256;2022-07-29T14:51:18;3.87;;;1.70;;
3922;SDS011;1976;51.694;6.256;2022-07-29T14:53:44;3.73;;;2.10;;
3922;SDS011;1976;51.694;6.256;2022-07-29T14:56:10;7.23;;;1.70;;
3922;SDS011;1976;51.694;6.256;2022-07-29T14:58:35;1.57;;;1.33;;
3922;SDS011;1976;51.694;6.256;2022-07-29T15:01:01;2.20;;;1.33;;
3922;SDS011;1976;51.694;6.256;2022-07-29T15:03:27;7.63;;;1.77;;
3922;SDS011;1976;51.694;6.256;2022-07-29T15:05:53;3.53;;;1.77;;
3922;SDS011;1976;51.694;6.256;2022-07-29T15:08:19;7.87;;;2.23;;
3922;SDS011;1976;51.694;6.256;2022-07-29T15:10:45;3.30;;;1.90;;
3922;SDS011;1976;51.694;6.256;2022-07-29T15:13:11;11.43;;;1.60;;
3922;SDS011;1976;51.694;6.256;2022-07-29T15:15:36;2.30;;;1.50;;
3922;SDS011;1976;51.694;6.256;2022-07-29T15:18:02;1.90;;;1.27;;
3922;SDS011;1976;51.694;6.256;2022-07-29T15:20:28;4.37;;;1.73;;
3922;SDS011;1976;51.694;6.256;2022-07-29T15:22:54;5.60;;;1.60;;
3922;SDS011;1976;51.694;6.256;2022-07-29T15:25:23;4.13;;;1.33;;
3922;SDS011;1976;51.694;6.256;2022-07-29T15:27:49;2.67;;;1.60;;
3922;SDS011;1976;51.694;6.256;2022-07-29T15:30:15;5.13;;;1.30;;
3922;SDS011;1976;51.694;6.256;2022-07-29T15:32:44;3.57;;;2.00;;
3922;SDS011;1976;51.694;6.256;2022-07-29T15:35:10;3.60;;;1.53;;
3922;SDS011;1976;51.694;6.256;2022-07-29T15:37:36;3.43;;;1.73;;
3922;SDS011;1976;51.694;6.256;2022-07-29T15:40:03;3.47;;;1.40;;
3922;SDS011;1976;51.694;6.256;2022-07-29T15:42:30;15.33;;;1.93;;
3922;SDS011;1976;51.694;6.256;2022-07-29T15:44:56;6.30;;;1.73;;
3922;SDS011;1976;51.694;6.256;2022-07-29T15:47:22;7.10;;;2.10;;
3922;SDS011;1976;51.694;6.256;2022-07-29T15:49:47;4.80;;;1.93;;
3922;SDS011;1976;51.694;6.256;2022-07-29T15:52:14;3.17;;;1.70;;
3922;SDS011;1976;51.694;6.256;2022-07-29T15:54:43;5.37;;;2.00;;
3922;SDS011;1976;51.694;6.256;2022-07-29T15:57:10;1.20;;;1.10;;
3922;SDS011;1976;51.694;6.256;2022-07-29T15:59:36;1.80;;;1.33;;
3922;SDS011;1976;51.694;6.256;2022-07-29T16:02:02;4.17;;;1.50;;
3922;SDS011;1976;51.694;6.256;2022-07-29T16:04:29;3.97;;;1.30;;
3922;SDS011;1976;51.694;6.256;2022-07-29T16:06:55;1.33;;;1.20;;
3922;SDS011;1976;51.694;6.256;2022-07-29T16:09:22;3.33;;;1.43;;
3922;SDS011;1976;51.694;6.256;2022-07-29T16:11:47;3.77;;;1.70;;
3922;SDS011;1976;51.694;6.256;2022-07-29T16:14:14;5.40;;;1.40;;
3922;SDS011;1976;51.694;6.256;2022-07-29T16:16:41;1.67;;;1.57;;
3922;SDS011;1976;51.694;6.256;2022-07-29T16:19:07;3.60;;;1.47;;